Time;durP1;ratioP1;P1;durP2;ratioP2;P2;SDS_P1;SDS_P2;PMS_P1;PMS_P2;Temp;Humidity;BMP_temperature;BMP_pressure;BME280_temperature;BME280_humidity;BME280_pressure;Samples;Min_cycle;Max_cycle;Signal;HPM_P1;HPM_P2
2023/09/25 00:02:43;;;;;;;18.35;17.45;;;;;;;10.70;100.00;101439.22;5973842;23;20250;-68
2023/09/25 00:05:24;;;;;;;4.97;4.68;;;;;;;11.49;100.00;101583.97;6029589;23;20458;-71
2023/09/25 00:07:51;;;;;;;4.93;4.65;;;;;;;11.50;100.00;101585.66;6053942;23;20101;-71
2023/09/25 00:10:18;;;;;;;4.40;4.20;;;;;;;11.52;100.00;101580.34;6057224;23;20056;-71
2023/09/25 00:12:44;;;;;;;5.18;4.85;;;;;;;11.11;100.00;101523.34;6052718;23;20037;-73
2023/09/25 00:15:13;;;;;;;4.90;4.70;;;;;;;10.40;100.00;101414.22;6055952;23;20512;-73
2023/09/25 00:17:43;;;;;;;4.68;4.47;;;;;;;11.32;100.00;101575.91;6030817;23;20030;-71
2023/09/25 00:20:10;;;;;;;5.18;4.95;;;;;;;11.37;100.00;101598.47;6083988;23;20006;-73
2023/09/25 00:22:38;;;;;;;5.03;4.82;;;;;;;10.65;100.00;101485.81;6055784;23;20030;-73
2023/09/25 00:25:05;;;;;;;5.00;4.80;;;;;;;11.42;100.00;101606.16;6054199;23;20077;-72
2023/09/25 00:27:31;;;;;;;4.70;4.50;;;;;;;10.63;100.00;101471.88;6054932;23;20030;-71
2023/09/25 00:30:00;;;;;;;5.25;4.95;;;;;;;11.40;100.00;101591.38;6085106;23;20150;-71
2023/09/25 00:32:27;;;;;;;4.50;4.30;;;;;;;11.02;100.00;101549.13;6055896;23;20057;-73
2023/09/25 00:34:54;;;;;;;5.10;4.82;;;;;;;11.28;100.00;101595.34;6083769;23;20010;-72
2023/09/25 00:37:21;;;;;;;4.70;4.50;;;;;;;10.66;100.00;101500.63;6056164;23;20646;-72
2023/09/25 00:39:49;;;;;;;4.65;4.45;;;;;;;10.41;100.00;101487.63;6052503;23;20081;-72
2023/09/25 00:42:16;;;;;;;5.38;4.97;;;;;;;11.18;100.00;101608.00;6056265;23;20032;-70
2023/09/25 00:44:42;;;;;;;5.03;4.75;;;;;;;10.30;100.00;101467.06;6051778;23;20459;-70
2023/09/25 00:47:09;;;;;;;4.85;4.55;;;;;;;11.12;100.00;101609.09;6055204;23;20398;-70
2023/09/25 00:49:36;;;;;;;5.20;4.90;;;;;;;10.99;100.00;101597.38;6057368;23;20093;-71
2023/09/25 00:52:03;;;;;;;5.40;5.00;;;;;;;10.73;100.00;101565.13;6082513;23;20025;-70
2023/09/25 00:54:33;;;;;;;5.45;5.00;;;;;;;10.94;100.00;101621.22;6054845;23;20029;-70
2023/09/25 00:57:08;;;;;;;4.80;4.60;;;;;;;10.42;100.00;101538.34;6051452;23;20042;-70
2023/09/25 00:59:38;;;;;;;4.65;4.45;;;;;;;10.54;100.00;101569.34;6058640;23;20014;-71
2023/09/25 01:02:05;;;;;;;5.40;5.10;;;;;;;10.50;100.00;101567.75;6081743;23;20022;-70
2023/09/25 01:04:31;;;;;;;5.25;4.85;;;;;;;10.86;100.00;101627.66;6055038;23;20647;-71
2023/09/25 01:06:58;;;;;;;4.70;4.50;;;;;;;10.87;100.00;101638.09;6082403;23;20030;-71
2023/09/25 01:09:25;;;;;;;5.10;4.75;;;;;;;10.71;100.00;101608.94;6051845;23;20075;-71
2023/09/25 01:11:51;;;;;;;5.50;5.10;;;;;;;10.79;100.00;101624.41;6029675;23;20049;-71
2023/09/25 01:14:17;;;;;;;4.90;4.60;;;;;;;10.42;100.00;101560.16;6053229;23;20098;-71
2023/09/25 01:16:44;;;;;;;4.78;4.55;;;;;;;10.92;100.00;101627.41;6082083;23;20112;-70
2023/09/25 01:19:10;;;;;;;5.03;4.72;;;;;;;10.90;100.00;101624.00;6053966;23;20099;-71
2023/09/25 01:21:37;;;;;;;5.10;4.65;;;;;;;10.88;100.00;101615.31;6079373;23;20018;-70
2023/09/25 01:24:04;;;;;;;5.20;4.90;;;;;;;10.78;100.00;101597.31;6047943;23;20226;-70
2023/09/25 01:26:30;;;;;;;4.80;4.50;;;;;;;10.81;100.00;101621.75;6080147;23;20033;-70
2023/09/25 01:28:57;;;;;;;5.00;4.80;;;;;;;10.75;100.00;101613.16;6051247;23;20036;-70
2023/09/25 01:31:23;;;;;;;4.97;4.68;;;;;;;10.63;100.00;101604.91;6084154;23;20022;-70
2023/09/25 01:33:50;;;;;;;5.07;4.78;;;;;;;10.76;100.00;101628.03;6053292;23;20086;-71
2023/09/25 01:36:16;;;;;;;4.30;4.10;;;;;;;10.76;100.00;101624.53;6054069;23;20033;-70
2023/09/25 01:38:44;;;;;;;4.57;4.28;;;;;;;10.73;100.00;101633.38;6085319;23;20050;-70
2023/09/25 01:41:10;;;;;;;4.95;4.65;;;;;;;10.69;100.00;101633.56;6052949;23;20087;-70
2023/09/25 01:43:37;;;;;;;4.63;4.43;;;;;;;10.61;100.00;101633.84;6080946;23;20036;-70
2023/09/25 01:46:03;;;;;;;5.28;5.00;;;;;;;10.58;100.00;101639.19;6055328;23;20140;-70
2023/09/25 01:48:30;;;;;;;4.47;4.28;;;;;;;10.52;100.00;101656.03;6053317;23;20035;-70
2023/09/25 01:50:56;;;;;;;5.32;4.75;;;;;;;9.86;100.00;101555.19;6051749;23;20031;-71
2023/09/25 01:53:23;;;;;;;5.15;4.82;;;;;;;10.42;100.00;101653.78;6054928;23;20042;-71
2023/09/25 01:55:49;;;;;;;4.80;4.60;;;;;;;10.36;100.00;101649.63;6076504;23;20037;-70
2023/09/25 01:58:16;;;;;;;5.20;4.90;;;;;;;10.28;100.00;101654.25;6030567;23;20010;-70
2023/09/25 02:00:42;;;;;;;5.00;4.70;;;;;;;10.20;100.00;101657.13;6053000;23;20105;-70
2023/09/25 02:03:09;;;;;;;4.70;4.50;;;;;;;10.14;100.00;101653.00;6053118;23;20022;-70
2023/09/25 02:05:36;;;;;;;4.35;4.15;;;;;;;10.09;100.00;101647.03;6082435;23;20591;-70
2023/09/25 02:08:02;;;;;;;5.13;4.72;;;;;;;10.03;100.00;101652.50;6052702;23;20100;-70
2023/09/25 02:10:29;;;;;;;4.32;4.10;;;;;;;9.96;100.00;101650.97;6079577;23;20010;-70
2023/09/25 02:12:56;;;;;;;5.05;4.75;;;;;;;9.84;100.00;101644.38;6051482;23;20095;-70
2023/09/25 02:15:22;;;;;;;4.95;4.68;;;;;;;9.89;100.00;101655.59;6048551;23;20018;-70
2023/09/25 02:17:49;;;;;;;5.00;4.72;;;;;;;9.81;100.00;101662.84;6075511;23;20100;-70
2023/09/25 02:20:20;;;;;;;5.60;5.05;;;;;;;9.30;100.00;101582.44;6051263;23;20010;-70
2023/09/25 02:22:48;;;;;;;4.63;4.43;;;;;;;9.59;100.00;101633.88;6082746;23;20038;-70
2023/09/25 02:25:15;;;;;;;4.57;4.38;;;;;;;9.03;100.00;101545.75;6053597;23;20014;-71
2023/09/25 02:27:42;;;;;;;4.72;4.53;;;;;;;9.47;100.00;101619.41;6078035;23;20033;-72
2023/09/25 02:30:10;;;;;;;5.28;4.85;;;;;;;9.69;100.00;101666.75;6047910;23;20014;-71
2023/09/25 02:32:38;;;;;;;4.50;4.28;;;;;;;9.69;100.00;101676.38;6054552;23;20030;-69
2023/09/25 02:35:05;;;;;;;4.90;4.60;;;;;;;9.36;100.00;101632.88;6052537;23;20033;-71
2023/09/25 02:37:31;;;;;;;4.38;4.18;;;;;;;9.64;100.00;101676.53;6051005;23;20299;-69
2023/09/25 02:39:58;;;;;;;5.00;4.70;;;;;;;9.47;100.00;101652.63;6051423;23;20016;-69
2023/09/25 02:42:24;;;;;;;4.72;4.53;;;;;;;9.35;100.00;101639.00;6052351;23;20034;-69
2023/09/25 02:44:53;;;;;;;4.85;4.55;;;;;;;8.84;100.00;101563.81;6052953;23;20048;-69
2023/09/25 02:47:19;;;;;;;4.70;4.50;;;;;;;9.53;100.00;101679.47;6049975;23;20532;-69
2023/09/25 02:49:46;;;;;;;4.38;4.18;;;;;;;9.36;100.00;101661.69;6079440;23;20558;-69
2023/09/25 02:52:12;;;;;;;4.97;4.68;;;;;;;9.33;100.00;101651.31;6048566;23;20089;-69
2023/09/25 02:54:39;;;;;;;4.28;4.07;;;;;;;9.44;100.00;101682.41;6079733;23;20084;-71
2023/09/25 02:57:05;;;;;;;5.20;4.90;;;;;;;9.41;100.00;101682.50;6045912;23;20615;-71
2023/09/25 02:59:32;;;;;;;4.63;4.32;;;;;;;9.40;100.00;101683.38;6080705;23;20045;-71
2023/09/25 03:01:58;;;;;;;4.65;4.45;;;;;;;9.25;100.00;101674.25;6054048;23;20575;-71
2023/09/25 03:04:25;;;;;;;4.40;4.20;;;;;;;8.93;100.00;101615.03;6055177;23;20029;-70
2023/09/25 03:06:51;;;;;;;4.30;4.10;;;;;;;9.23;100.00;101683.06;6030107;23;20027;-72
2023/09/25 03:09:17;;;;;;;4.57;4.28;;;;;;;8.68;100.00;101602.69;6026230;23;20397;-71
2023/09/25 03:11:44;;;;;;;4.63;4.43;;;;;;;9.26;100.00;101701.31;6028723;23;20676;-72
2023/09/25 03:14:10;;;;;;;5.15;4.85;;;;;;;9.23;100.00;101702.25;6053446;23;20046;-71
2023/09/25 03:16:37;;;;;;;4.22;4.03;;;;;;;9.22;100.00;101699.69;6020708;23;20048;-71
2023/09/25 03:19:04;;;;;;;4.97;4.68;;;;;;;8.43;100.00;101573.75;6002129;23;20026;-71
2023/09/25 03:21:30;;;;;;;4.60;4.40;;;;;;;9.18;100.00;101715.50;6028106;23;20022;-72
2023/09/25 03:23:57;;;;;;;4.70;4.40;;;;;;;9.15;100.00;101722.59;6027115;23;20026;-71
2023/09/25 03:26:23;;;;;;;4.32;4.13;;;;;;;9.15;100.00;101722.59;6056053;23;20040;-72
2023/09/25 03:28:50;;;;;;;4.70;4.40;;;;;;;8.97;100.00;101698.66;6029536;23;20549;-71
2023/09/25 03:31:16;;;;;;;5.60;5.20;;;;;;;9.10;100.00;101733.22;6057291;23;20026;-71
2023/09/25 03:33:46;;;;;;;4.63;4.43;;;;;;;9.08;100.00;101740.25;6030057;23;20034;-71
2023/09/25 03:36:13;;;;;;;4.75;4.55;;;;;;;9.06;100.00;101742.06;6026984;23;20015;-72
2023/09/25 03:38:39;;;;;;;4.20;4.00;;;;;;;8.89;100.00;101716.34;6028339;23;20035;-72
2023/09/25 03:41:08;;;;;;;5.15;4.85;;;;;;;8.66;100.00;101676.88;6056975;23;20073;-72
2023/09/25 03:43:35;;;;;;;4.68;4.45;;;;;;;9.01;100.00;101740.47;6027695;23;20053;-71
2023/09/25 03:46:02;;;;;;;4.72;4.50;;;;;;;9.01;100.00;101748.31;6053155;23;20026;-71
2023/09/25 03:48:29;;;;;;;5.15;4.75;;;;;;;7.61;100.00;101519.38;6024309;23;20054;-71
2023/09/25 03:50:55;;;;;;;4.90;4.63;;;;;;;8.92;100.00;101733.72;6026644;23;20093;-72
2023/09/25 03:53:21;;;;;;;4.90;4.70;;;;;;;8.30;100.00;101646.47;6048354;23;20102;-71
2023/09/25 03:55:48;;;;;;;4.63;4.43;;;;;;;8.63;100.00;101698.78;6020722;23;20057;-71
2023/09/25 03:58:15;;;;;;;4.85;4.57;;;;;;;8.32;100.00;101656.88;6057546;23;20057;-71
2023/09/25 04:00:41;;;;;;;4.93;4.70;;;;;;;8.59;100.00;101711.06;6028397;23;20093;-71
2023/09/25 04:03:08;;;;;;;4.80;4.50;;;;;;;8.92;100.00;101763.41;6025940;23;20057;-72
2023/09/25 04:05:34;;;;;;;4.50;4.30;;;;;;;8.92;100.00;101768.63;6050776;23;20033;-71
2023/09/25 04:08:01;;;;;;;4.93;4.72;;;;;;;8.87;100.00;101759.19;6084100;23;20050;-71
2023/09/25 04:10:27;;;;;;;5.53;5.03;;;;;;;8.92;100.00;101763.41;6047085;23;20030;-72
2023/09/25 04:12:55;;;;;;;4.65;4.45;;;;;;;8.90;100.00;101749.50;6080683;23;20093;-72
2023/09/25 04:15:25;;;;;;;4.55;4.35;;;;;;;8.93;100.00;101757.25;6048103;23;20056;-72
2023/09/25 04:17:52;;;;;;;5.15;4.85;;;;;;;8.91;100.00;101764.28;6055296;23;20037;-72
2023/09/25 04:20:24;;;;;;;5.55;5.00;;;;;;;8.54;100.00;101710.34;6079449;23;20014;-72
2023/09/25 04:22:56;;;;;;;5.00;4.70;;;;;;;8.96;100.00;101775.50;6052534;23;20041;-73
2023/09/25 04:25:24;;;;;;;4.72;4.53;;;;;;;8.97;100.00;101771.13;6083911;23;20111;-72
2023/09/25 04:27:54;;;;;;;4.35;4.15;;;;;;;8.47;100.00;101695.72;6055443;23;20049;-71
2023/09/25 04:30:21;;;;;;;4.40;4.20;;;;;;;8.52;100.00;101678.16;6050274;23;20030;-72
2023/09/25 04:32:49;;;;;;;4.80;4.50;;;;;;;8.97;100.00;101758.88;6052596;23;20126;-69
2023/09/25 04:35:17;;;;;;;4.90;4.50;;;;;;;9.06;100.00;101776.09;6053438;23;20023;-70
2023/09/25 04:37:44;;;;;;;4.32;4.13;;;;;;;9.08;100.00;101768.19;6081920;23;20030;-68
2023/09/25 04:42:51;;;;;;;4.95;4.53;;;;;;;9.16;100.00;101774.94;6085796;23;20029;-69
2023/09/25 04:45:19;;;;;;;4.60;4.40;;;;;;;8.73;100.00;101695.00;6051755;23;20041;-69
2023/09/25 04:47:53;;;;;;;4.70;4.40;;;;;;;9.21;100.00;101755.59;6084959;23;20024;-69
2023/09/25 04:50:21;;;;;;;4.40;4.20;;;;;;;9.20;100.00;101754.75;6055853;23;20809;-69
2023/09/25 04:52:48;;;;;;;4.43;4.22;;;;;;;9.25;100.00;101759.84;6083306;23;20913;-70
2023/09/25 04:55:15;;;;;;;4.68;4.47;;;;;;;8.85;100.00;101693.78;6051212;23;20696;-69
2023/09/25 04:57:43;;;;;;;4.80;4.50;;;;;;;9.34;100.00;101770.03;6083099;23;20021;-69
2023/09/25 05:02:44;;;;;;;4.72;4.40;;;;;;;9.27;100.00;101765.91;6080549;23;20085;-71
2023/09/25 05:05:15;;;;;;;4.88;4.68;;;;;;;9.27;100.00;101760.66;6050197;23;20638;-71
2023/09/25 05:07:43;;;;;;;4.65;4.40;;;;;;;8.67;100.00;101655.06;6055288;23;20061;-70
2023/09/25 05:10:12;;;;;;;4.75;4.55;;;;;;;9.34;100.00;101762.19;6054832;23;20022;-70
2023/09/25 05:12:42;;;;;;;4.35;4.15;;;;;;;9.36;100.00;101755.13;6053848;23;20089;-71
2023/09/25 05:15:09;;;;;;;4.50;4.30;;;;;;;9.33;100.00;101757.84;6083047;23;20433;-70
2023/09/25 05:17:40;;;;;;;4.95;4.65;;;;;;;8.39;100.00;101593.88;6051370;23;20795;-70
2023/09/25 05:20:11;;;;;;;4.70;4.50;;;;;;;9.46;100.00;101761.84;6053785;23;20007;-70
2023/09/25 05:22:39;;;;;;;4.35;4.15;;;;;;;9.49;100.00;101761.72;6054111;23;20583;-71
2023/09/25 05:25:07;;;;;;;4.70;4.50;;;;;;;8.91;100.00;101658.72;6080885;23;20109;-70
2023/09/25 05:27:37;;;;;;;4.57;4.28;;;;;;;9.28;100.00;101712.59;6054016;23;20031;-71
2023/09/25 05:30:05;;;;;;;5.10;4.60;;;;;;;8.41;100.00;101553.75;6078574;23;20104;-70
2023/09/25 05:32:32;;;;;;;4.93;4.63;;;;;;;9.61;100.00;101741.28;6052005;23;20031;-69
2023/09/25 05:34:59;;;;;;;4.45;4.25;;;;;;;9.55;100.00;101724.84;6052031;23;20026;-70
2023/09/25 05:37:25;;;;;;;4.57;4.38;;;;;;;9.10;100.00;101638.94;6054604;23;20140;-70
2023/09/25 05:39:52;;;;;;;4.60;4.40;;;;;;;9.47;100.00;101684.91;6054310;23;20046;-69
2023/09/25 05:42:18;;;;;;;5.15;4.85;;;;;;;9.04;100.00;101606.81;6078833;23;20575;-70
2023/09/25 05:44:44;;;;;;;4.50;4.30;;;;;;;9.94;100.00;101737.59;6054686;23;20042;-71
2023/09/25 05:47:11;;;;;;;4.25;4.05;;;;;;;10.16;100.00;101752.59;6083995;23;20075;-71
2023/09/25 05:49:38;;;;;;;4.90;4.70;;;;;;;9.00;100.00;101538.03;6029216;23;20018;-72
2023/09/25 05:52:04;;;;;;;4.70;4.50;;;;;;;10.34;100.00;101743.28;6054472;23;20671;-72
2023/09/25 05:54:31;;;;;;;4.82;4.53;;;;;;;9.34;100.00;101563.09;6054995;23;20093;-72
2023/09/25 05:56:58;;;;;;;4.40;4.20;;;;;;;10.35;100.00;101708.28;6056556;23;20030;-71
2023/09/25 05:59:24;;;;;;;5.22;4.93;;;;;;;10.49;100.00;101713.03;6078503;23;20090;-71
2023/09/25 06:01:50;;;;;;;4.57;4.38;;;;;;;10.39;100.00;101681.00;6056480;23;20098;-71
2023/09/25 06:04:17;;;;;;;5.10;4.80;;;;;;;10.63;100.00;101715.16;6078005;23;20010;-73
2023/09/25 06:06:44;;;;;;;4.40;4.20;;;;;;;10.69;100.00;101712.31;6053666;23;20030;-72
2023/09/25 06:09:15;;;;;;;5.00;4.70;;;;;;;10.55;100.00;101689.19;6054931;23;20390;-71
2023/09/25 06:11:43;;;;;;;4.90;4.57;;;;;;;10.82;100.00;101707.47;6050602;23;20026;-70
2023/09/25 06:14:10;;;;;;;4.78;4.53;;;;;;;10.65;100.00;101659.06;6075698;23;20080;-70
2023/09/25 06:16:36;;;;;;;4.85;4.65;;;;;;;11.03;100.00;101695.31;6053091;23;20050;-71
2023/09/25 06:19:03;;;;;;;4.43;4.22;;;;;;;11.13;100.00;101683.53;6052248;23;20038;-70
2023/09/25 06:21:30;;;;;;;5.32;5.03;;;;;;;11.04;100.00;101637.44;6061531;23;20503;-71
2023/09/25 06:23:57;;;;;;;4.75;4.55;;;;;;;11.34;100.00;101661.66;6053690;23;20018;-71
2023/09/25 06:26:27;;;;;;;4.75;4.45;;;;;;;11.18;100.00;101605.38;6054029;23;20036;-71
2023/09/25 06:28:54;;;;;;;4.80;4.50;;;;;;;11.52;100.00;101646.06;6053896;23;20030;-70
2023/09/25 06:31:22;;;;;;;5.32;5.00;;;;;;;11.20;100.00;101558.03;6078266;23;20046;-70
2023/09/25 06:33:50;;;;;;;4.43;4.22;;;;;;;10.92;100.00;101496.09;6050153;23;20037;-70
2023/09/25 06:36:16;;;;;;;4.60;4.40;;;;;;;11.51;100.00;101568.13;6056482;23;20014;-70
2023/09/25 06:38:43;;;;;;;4.28;4.07;;;;;;;12.04;100.00;101624.63;6057382;23;20552;-70
2023/09/25 06:41:11;;;;;;;5.30;5.00;;;;;;;11.85;100.00;101566.69;6059553;23;20024;-69
2023/09/25 06:43:38;;;;;;;5.65;5.30;;;;;;;11.72;100.00;101519.84;6055676;23;20563;-71
2023/09/25 06:46:05;;;;;;;4.82;4.53;;;;;;;12.31;100.00;101578.69;6056441;23;20061;-71
2023/09/25 06:48:34;;;;;;;5.13;4.82;;;;;;;11.03;100.00;101324.97;6057725;23;20764;-73
2023/09/25 06:51:01;;;;;;;4.95;4.65;;;;;;;12.33;100.00;101518.91;6054090;23;20217;-70
2023/09/25 06:53:27;;;;;;;5.10;4.80;;;;;;;12.77;100.00;101544.94;6084477;23;20033;-71
2023/09/25 06:55:55;;;;;;;5.03;4.72;;;;;;;12.77;100.00;101500.16;6052732;23;20030;-72
2023/09/25 06:58:21;;;;;;;5.00;4.70;;;;;;;12.97;100.00;101522.91;6082716;23;20111;-70
2023/09/25 07:00:50;;;;;;;5.85;4.70;;;;;;;12.70;100.00;101432.91;6055382;23;20675;-69
2023/09/25 07:03:23;;;;;;;5.30;5.00;;;;;;;12.75;100.00;101435.31;6058039;23;20070;-71
2023/09/25 07:05:49;;;;;;;5.03;4.72;;;;;;;13.14;100.00;101455.31;6047943;23;20030;-70
2023/09/25 07:08:16;;;;;;;5.93;5.32;;;;;;;13.29;100.00;101445.75;6058449;23;20037;-70
2023/09/25 07:10:46;;;;;;;4.85;4.63;;;;;;;12.89;100.00;101377.53;6082445;23;20041;-70
2023/09/25 07:13:12;;;;;;;7.85;5.28;;;;;;;13.38;100.00;101436.56;6053641;23;20086;-71
2023/09/25 07:15:39;;;;;;;4.90;4.70;;;;;;;13.66;100.00;101463.19;6078609;23;20093;-71
2023/09/25 07:18:06;;;;;;;5.50;5.20;;;;;;;13.87;100.00;101465.63;6050693;23;20421;-72
2023/09/25 07:20:33;;;;;;;5.47;5.18;;;;;;;13.92;95.35;101389.72;6078788;23;20041;-71
2023/09/25 07:23:00;;;;;;;4.78;4.57;;;;;;;13.72;93.97;101314.31;6057242;23;20114;-73
2023/09/25 07:25:26;;;;;;;5.28;4.97;;;;;;;13.18;93.85;101228.41;6081562;23;20083;-72
2023/09/25 07:27:53;;;;;;;5.38;5.07;;;;;;;13.55;93.22;101276.53;6053623;23;20038;-72
2023/09/25 07:30:20;;;;;;;5.78;5.47;;;;;;;14.11;92.66;101357.84;6078692;23;20033;-72
2023/09/25 07:32:46;;;;;;;5.28;4.97;;;;;;;14.30;90.35;101341.81;6056082;23;20030;-71
2023/09/25 07:35:15;;;;;;;5.10;4.80;;;;;;;14.29;90.38;101342.75;6051603;23;20014;-71
2023/09/25 07:37:42;;;;;;;5.40;5.10;;;;;;;14.39;89.90;101328.06;6083084;23;20029;-71
2023/09/25 07:40:09;;;;;;;5.07;4.80;;;;;;;14.00;89.20;101260.81;6052597;23;20382;-71
2023/09/25 07:42:36;;;;;;;5.43;5.10;;;;;;;14.50;89.97;101327.47;6082569;23;20042;-72
2023/09/25 07:45:05;;;;;;;5.15;4.85;;;;;;;14.58;87.26;101295.34;6051811;23;20050;-72
2023/09/25 07:47:32;;;;;;;5.10;4.80;;;;;;;13.44;87.64;101107.53;6051430;23;20037;-72
2023/09/25 07:49:59;;;;;;;5.20;4.90;;;;;;;14.92;85.56;101296.81;6052635;23;20033;-72
2023/09/25 07:52:26;;;;;;;5.65;5.28;;;;;;;15.06;84.87;101267.75;6052301;23;20030;-72
2023/09/25 07:54:52;;;;;;;5.55;5.25;;;;;;;14.39;82.98;101131.81;6051870;23;20022;-72
2023/09/25 07:57:21;;;;;;;5.32;5.03;;;;;;;15.06;82.38;101233.38;6056480;23;20089;-72
2023/09/25 07:59:48;;;;;;;5.32;5.03;;;;;;;15.03;82.58;101245.94;6051862;23;20060;-72
2023/09/25 08:02:21;;;;;;;5.22;4.93;;;;;;;15.02;81.96;101223.94;6084052;23;20543;-72
2023/09/25 08:04:49;;;;;;;5.25;4.95;;;;;;;15.19;81.44;101256.41;6050480;23;20069;-73
2023/09/25 08:07:15;;;;;;;5.60;5.20;;;;;;;15.27;82.31;101265.53;6080583;23;20057;-72
2023/09/25 08:09:42;;;;;;;4.90;4.70;;;;;;;14.73;82.20;101191.38;6051553;23;20018;-72
2023/09/25 08:12:08;;;;;;;5.13;4.90;;;;;;;15.15;82.16;101246.03;6080641;23;20121;-72
2023/09/25 08:14:35;;;;;;;5.50;5.20;;;;;;;14.87;81.68;101212.50;6055383;23;20029;-71
2023/09/25 08:17:02;;;;;;;8.23;5.35;;;;;;;13.72;80.02;100960.84;6050940;23;20826;-72
2023/09/25 08:19:28;;;;;;;5.50;5.20;;;;;;;15.49;75.76;101103.66;6052737;23;20022;-72
2023/09/25 08:21:55;;;;;;;5.13;4.93;;;;;;;14.01;76.74;100902.78;6054897;23;20730;-72
2023/09/25 08:24:22;;;;;;;5.53;5.22;;;;;;;15.79;78.39;101257.91;6052771;23;20014;-70
2023/09/25 08:26:48;;;;;;;5.60;5.20;;;;;;;15.77;73.88;101093.91;6082212;23;20026;-70
2023/09/25 08:29:16;;;;;;;5.25;5.00;;;;;;;15.85;73.56;101094.25;6054844;23;20486;-72
2023/09/25 08:31:44;;;;;;;5.18;4.90;;;;;;;15.79;74.49;101122.94;6079339;23;20050;-71
2023/09/25 08:34:11;;;;;;;6.57;5.20;;;;;;;15.86;75.45;101175.34;6048349;23;20556;-70
2023/09/25 08:36:38;;;;;;;5.47;4.93;;;;;;;15.69;73.84;101102.34;6082064;23;20026;-71
2023/09/25 08:39:04;;;;;;;5.60;5.20;;;;;;;16.09;74.10;101170.31;6052117;23;20019;-72
2023/09/25 08:41:31;;;;;;;5.72;5.20;;;;;;;16.15;72.56;101138.94;6051215;23;20026;-70
2023/09/25 08:43:58;;;;;;;5.43;5.13;;;;;;;16.24;72.59;101148.06;6054737;23;20712;-70
2023/09/25 08:46:25;;;;;;;5.40;5.10;;;;;;;16.12;72.30;101114.50;6085570;23;20040;-70
2023/09/25 08:48:56;;;;;;;5.60;5.30;;;;;;;16.37;70.79;101076.53;6053001;23;20048;-70
2023/09/25 08:51:31;;;;;;;5.43;5.13;;;;;;;16.66;70.66;101140.75;6081928;23;20034;-70
2023/09/25 08:53:57;;;;;;;5.70;5.30;;;;;;;16.47;70.22;101096.13;6051583;23;20022;-70
2023/09/25 08:56:24;;;;;;;5.50;5.20;;;;;;;16.81;68.10;101079.63;6081724;23;20053;-70
2023/09/25 08:58:53;;;;;;;5.53;5.10;;;;;;;16.90;68.32;101111.66;6050536;23;20018;-70
2023/09/25 09:01:20;;;;;;;5.60;5.30;;;;;;;16.62;67.69;101048.28;6081633;23;20018;-70
2023/09/25 09:03:47;;;;;;;5.30;5.00;;;;;;;16.65;68.77;101117.81;6049018;23;20019;-70
2023/09/25 09:06:13;;;;;;;5.30;5.00;;;;;;;16.68;68.32;101092.94;6085549;23;20022;-70
2023/09/25 09:08:43;;;;;;;5.55;5.20;;;;;;;16.81;66.22;101016.00;6053865;23;20524;-71
2023/09/25 09:11:10;;;;;;;5.40;5.10;;;;;;;17.51;66.79;101175.28;6080229;23;20026;-71
2023/09/25 09:13:47;;;;;;;5.32;5.03;;;;;;;17.55;66.18;101128.97;6052834;23;20030;-70
2023/09/25 09:16:16;;;;;;;5.70;5.40;;;;;;;17.59;65.16;101116.34;6078563;23;20014;-70
2023/09/25 09:18:43;;;;;;;5.30;5.05;;;;;;;17.59;64.10;101042.03;6051462;23;20030;-70
2023/09/25 09:21:20;;;;;;;6.75;6.35;;;;;;;17.99;64.73;101152.34;6047162;23;20038;-71
2023/09/25 09:23:47;;;;;;;5.40;5.15;;;;;;;18.02;63.73;101118.44;6080821;23;20087;-70
2023/09/25 09:26:14;;;;;;;5.70;5.30;;;;;;;18.28;62.83;101104.91;6055144;23;20102;-70
2023/09/25 09:28:42;;;;;;;5.55;5.25;;;;;;;18.27;62.60;101092.59;6054517;23;20023;-69
2023/09/25 09:31:10;;;;;;;6.15;5.55;;;;;;;18.26;62.33;101089.09;6055167;23;20044;-71
2023/09/25 09:33:41;;;;;;;5.63;5.32;;;;;;;18.37;62.37;101112.16;6077684;23;20085;-71
2023/09/25 09:36:12;;;;;;;5.22;5.03;;;;;;;18.51;62.81;101161.59;6055637;23;20034;-73
2023/09/25 09:38:40;;;;;;;5.90;5.50;;;;;;;18.69;63.01;101185.88;6053851;23;20015;-72
2023/09/25 09:41:08;;;;;;;6.05;5.70;;;;;;;18.58;61.80;101117.59;6081503;23;20073;-72
2023/09/25 09:43:35;;;;;;;5.60;5.30;;;;;;;18.24;61.61;101042.34;6051300;23;20055;-72
2023/09/25 09:46:02;;;;;;;6.10;5.60;;;;;;;18.92;60.60;101117.56;6081001;23;20524;-71
2023/09/25 09:48:31;;;;;;;6.38;6.05;;;;;;;18.68;59.53;101038.81;6054687;23;20047;-73
2023/09/25 09:51:03;;;;;;;5.55;5.25;;;;;;;18.46;60.87;101110.59;6080968;23;20049;-73
2023/09/25 09:53:36;;;;;;;6.20;5.72;;;;;;;18.91;59.94;101153.97;6053908;23;20080;-73
2023/09/25 09:56:03;;;;;;;5.75;5.40;;;;;;;19.01;60.54;101185.16;6079334;23;20080;-73
2023/09/25 09:58:31;;;;;;;5.53;5.22;;;;;;;18.99;59.49;101134.75;6028615;23;20014;-72
2023/09/25 10:01:00;;;;;;;6.13;5.80;;;;;;;19.05;59.71;101154.69;6083286;23;20497;-73
2023/09/25 10:03:29;;;;;;;5.88;5.57;;;;;;;19.09;58.29;101101.09;6053209;23;20078;-73
2023/09/25 10:05:56;;;;;;;5.70;5.30;;;;;;;19.11;58.93;101178.97;6083744;23;20066;-73
2023/09/25 10:08:22;;;;;;;5.60;5.30;;;;;;;19.15;58.12;101126.38;6028881;23;20053;-73
2023/09/25 10:10:51;;;;;;;5.63;5.32;;;;;;;19.20;58.85;101193.34;6080370;23;20176;-73
2023/09/25 10:13:25;;;;;;;5.82;5.53;;;;;;;19.31;58.52;101160.56;6053714;23;20166;-72
2023/09/25 10:16:00;;;;;;;5.60;5.30;;;;;;;19.36;55.87;101059.03;6050516;23;20105;-70
2023/09/25 10:18:27;;;;;;;5.88;5.57;;;;;;;19.47;58.54;101200.91;6045222;23;20490;-74
2023/09/25 10:21:08;;;;;;;6.28;5.82;;;;;;;19.50;58.83;101242.41;6081055;23;20029;-71
2023/09/25 10:23:38;;;;;;;5.88;5.40;;;;;;;19.57;57.61;101154.91;6045793;23;20027;-74
2023/09/25 10:26:09;;;;;;;5.78;5.38;;;;;;;19.65;55.90;101093.88;6052846;23;20759;-74
2023/09/25 10:28:39;;;;;;;5.65;5.35;;;;;;;19.77;56.20;101137.28;6052463;23;20030;-74
2023/09/25 10:31:19;;;;;;;6.07;5.68;;;;;;;19.85;55.67;101135.66;6082064;23;20045;-71
2023/09/25 10:33:54;;;;;;;5.70;5.40;;;;;;;19.80;55.76;101142.34;6054021;23;20034;-72
2023/09/25 10:36:21;;;;;;;5.80;5.50;;;;;;;20.03;56.51;101234.50;6080456;23;20045;-72
2023/09/25 10:38:54;;;;;;;5.72;5.43;;;;;;;20.16;54.96;101161.50;6054220;23;20026;-71
2023/09/25 10:41:22;;;;;;;6.13;5.78;;;;;;;19.98;55.81;101171.91;6081003;23;20016;-72
2023/09/25 10:43:48;;;;;;;6.05;5.70;;;;;;;19.98;55.40;101151.44;6053085;23;20041;-73
2023/09/25 10:46:15;;;;;;;5.70;5.40;;;;;;;20.45;53.48;101129.69;6050199;23;20018;-72
2023/09/25 10:48:42;;;;;;;6.45;5.95;;;;;;;20.47;53.72;101141.91;6047682;23;20080;-70
2023/09/25 10:51:08;;;;;;;5.95;5.60;;;;;;;20.53;53.99;101175.19;6029028;23;20030;-70
2023/09/25 10:53:35;;;;;;;7.75;5.78;;;;;;;20.49;52.49;101069.78;6078778;23;20022;-71
2023/09/25 10:56:01;;;;;;;5.78;5.47;;;;;;;20.45;54.91;101197.19;6052179;23;20092;-71
2023/09/25 10:58:28;;;;;;;5.90;5.60;;;;;;;20.31;53.63;101146.88;6053232;23;20456;-73
2023/09/25 11:00:54;;;;;;;5.80;5.50;;;;;;;20.57;53.17;101157.09;6052511;23;20022;-73
2023/09/25 11:03:21;;;;;;;5.80;5.50;;;;;;;20.68;54.75;101239.72;6051631;23;20037;-72
2023/09/25 11:05:49;;;;;;;5.82;5.43;;;;;;;20.32;53.08;101116.56;6027513;23;20125;-72
2023/09/25 11:08:18;;;;;;;5.70;5.40;;;;;;;20.68;51.35;101107.19;6083248;23;20041;-72
2023/09/25 11:10:45;;;;;;;6.10;5.70;;;;;;;20.76;51.15;101125.19;6051024;23;20102;-73
2023/09/25 11:13:12;;;;;;;5.95;5.55;;;;;;;20.76;50.70;101146.53;6081560;23;20107;-72
2023/09/25 11:15:40;;;;;;;6.20;5.75;;;;;;;20.40;52.03;101151.41;6025060;23;20034;-72
2023/09/25 11:18:10;;;;;;;6.03;5.63;;;;;;;20.90;52.75;101270.72;6081663;23;20153;-73
2023/09/25 11:20:38;;;;;;;6.00;5.60;;;;;;;21.10;51.59;101219.09;6050953;23;20026;-73
2023/09/25 11:23:09;;;;;;;5.90;5.53;;;;;;;20.99;51.60;101218.34;6081603;23;20088;-74
2023/09/25 11:25:46;;;;;;;5.50;5.20;;;;;;;20.83;51.55;101184.19;6056362;23;20030;-73
2023/09/25 11:28:14;;;;;;;6.22;5.72;;;;;;;20.69;52.00;101212.91;6086428;23;20084;-72
2023/09/25 11:30:46;;;;;;;5.93;5.60;;;;;;;20.99;51.29;101223.69;6055500;23;20610;-70